Time;durP1;ratioP1;P1;durP2;ratioP2;P2;SDS_P1;SDS_P2;PMS_P1;PMS_P2;Temp;Humidity;BMP_temperature;BMP_pressure;BME280_temperature;BME280_humidity;BME280_pressure;Samples;Min_cycle;Max_cycle;Signal;HPM_P1;HPM_P2
2023/10/29 00:00:22;;;;;;;6.53;2.60;;;;;;;16.14;63.19;100714.50;4889766;29;20044;-77
2023/10/29 00:02:52;;;;;;;5.50;3.00;;;;;;;16.10;63.79;100714.00;4897595;29;20087;-80
2023/10/29 00:05:20;;;;;;;7.93;3.00;;;;;;;15.82;63.64;100670.69;4887553;29;20063;-77
2023/10/29 00:07:47;;;;;;;5.68;2.38;;;;;;;15.87;63.80;100671.00;4885745;29;20348;-78
2023/10/29 00:10:16;;;;;;;10.48;2.67;;;;;;;15.66;63.93;100641.25;4899639;29;20108;-76
2023/10/29 00:12:43;;;;;;;4.53;2.63;;;;;;;15.80;64.10;100662.00;4895029;29;20060;-78
2023/10/29 00:15:10;;;;;;;9.25;3.10;;;;;;;16.15;64.10;100716.19;4892335;29;20066;-79
2023/10/29 00:17:37;;;;;;;3.72;2.50;;;;;;;16.03;64.01;100692.41;4894902;29;20048;-78
2023/10/29 00:20:08;;;;;;;5.40;2.75;;;;;;;15.93;64.26;100686.41;4873579;29;20054;-78
2023/10/29 00:22:35;;;;;;;7.57;3.05;;;;;;;16.03;64.35;100707.66;4882101;29;20558;-78
2023/10/29 00:25:02;;;;;;;6.53;3.15;;;;;;;15.90;64.38;100692.13;4871261;29;20131;-79
2023/10/29 00:27:29;;;;;;;6.72;2.88;;;;;;;16.00;64.83;100705.31;4896829;29;20078;-79
2023/10/29 00:29:56;;;;;;;4.40;2.53;;;;;;;16.02;65.15;100709.50;4887503;29;20058;-80
2023/10/29 00:32:23;;;;;;;7.90;2.85;;;;;;;16.05;65.14;100715.53;4895018;29;20048;-79
2023/10/29 00:34:50;;;;;;;7.60;2.42;;;;;;;15.91;64.95;100687.59;4890774;29;20052;-77
2023/10/29 00:37:19;;;;;;;7.20;2.53;;;;;;;16.02;65.08;100722.06;4887693;29;20511;-77
2023/10/29 00:39:46;;;;;;;3.90;2.85;;;;;;;15.77;65.54;100681.91;4887522;29;20135;-78
2023/10/29 00:42:13;;;;;;;6.13;2.85;;;;;;;15.93;65.68;100715.88;4858145;29;20518;-78
2023/10/29 00:44:41;;;;;;;2.88;2.20;;;;;;;15.91;65.67;100720.56;4863981;29;20052;-79
2023/10/29 00:47:11;;;;;;;3.55;2.08;;;;;;;15.91;66.24;100731.25;4857562;29;20131;-78
2023/10/29 00:49:40;;;;;;;5.75;2.55;;;;;;;15.73;66.58;100706.53;4881005;29;20078;-79
2023/10/29 00:52:07;;;;;;;6.18;2.53;;;;;;;15.84;66.71;100716.88;4868058;29;20084;-78
2023/10/29 00:54:34;;;;;;;3.90;2.20;;;;;;;15.95;67.09;100732.59;4881544;29;20347;-78
2023/10/29 00:57:01;;;;;;;3.38;1.95;;;;;;;15.98;66.75;100740.28;4889038;29;20534;-79
2023/10/29 00:59:34;;;;;;;8.25;2.35;;;;;;;15.97;66.91;100746.66;4877282;29;20108;-80
2023/10/29 01:02:02;;;;;;;6.40;1.95;;;;;;;15.89;66.85;100733.25;4882289;29;20155;-79
2023/10/29 01:04:28;;;;;;;5.22;2.55;;;;;;;15.88;66.82;100736.97;4878599;29;20142;-78
2023/10/29 01:06:55;;;;;;;4.72;2.72;;;;;;;15.69;67.00;100711.31;4888882;29;20068;-79
2023/10/29 01:09:22;;;;;;;4.22;2.45;;;;;;;15.76;67.08;100714.22;4866604;29;20060;-78
2023/10/29 01:11:49;;;;;;;3.75;2.58;;;;;;;15.83;66.99;100711.69;4881079;29;20119;-78
2023/10/29 01:14:16;;;;;;;8.18;2.88;;;;;;;16.03;67.18;100745.97;4878021;29;20134;-78
2023/10/29 01:16:43;;;;;;;5.45;2.60;;;;;;;16.02;66.80;100740.81;4892698;29;20130;-78
2023/10/29 01:19:13;;;;;;;3.63;2.22;;;;;;;16.08;67.11;100742.78;4868018;29;20060;-78
2023/10/29 01:21:41;;;;;;;3.75;2.50;;;;;;;15.96;67.07;100734.25;4873898;29;20060;-79
2023/10/29 01:24:08;;;;;;;3.13;2.15;;;;;;;16.01;67.32;100756.00;4894359;29;20052;-78
2023/10/29 01:26:35;;;;;;;5.20;2.55;;;;;;;15.96;67.73;100758.34;4875028;29;20126;-80
2023/10/29 01:29:04;;;;;;;5.18;2.63;;;;;;;15.98;67.62;100742.13;4890218;29;20052;-79
2023/10/29 01:31:31;;;;;;;3.95;2.30;;;;;;;15.94;68.17;100712.16;4876082;29;20049;-79
2023/10/29 01:33:58;;;;;;;4.15;2.75;;;;;;;16.19;67.55;100718.34;4888290;29;20048;-78
2023/10/29 01:36:25;;;;;;;4.35;2.08;;;;;;;16.25;67.05;100716.81;4881134;29;20076;-78
2023/10/29 01:38:57;;;;;;;7.60;2.88;;;;;;;16.45;67.23;100744.06;4900231;29;20423;-79
2023/10/29 01:41:24;;;;;;;5.97;2.60;;;;;;;16.56;67.37;100740.19;4889240;29;20059;-78
2023/10/29 01:43:51;;;;;;;6.80;2.67;;;;;;;16.61;66.17;100735.97;4878050;29;20048;-78
2023/10/29 01:46:20;;;;;;;3.95;2.53;;;;;;;16.53;65.86;100729.81;4879834;29;20056;-79
2023/10/29 01:48:47;;;;;;;7.93;2.58;;;;;;;16.13;66.44;100675.34;4892503;29;20051;-78
2023/10/29 01:51:17;;;;;;;7.03;2.55;;;;;;;16.32;66.98;100725.84;4894315;29;20472;-79
2023/10/29 01:53:44;;;;;;;6.88;2.58;;;;;;;16.47;67.29;100735.88;4877733;29;20411;-78
2023/10/29 01:56:11;;;;;;;6.10;2.33;;;;;;;16.37;67.17;100725.34;4875531;29;20048;-79
2023/10/29 01:58:38;;;;;;;4.18;2.25;;;;;;;16.40;67.80;100712.44;4853648;29;20088;-78
2023/10/29 02:01:11;;;;;;;5.43;2.15;;;;;;;16.47;67.14;100725.97;4899996;29;20780;-79
2023/10/29 02:03:43;;;;;;;5.38;2.47;;;;;;;16.59;67.90;100729.97;4908328;29;20075;-80
2023/10/29 02:06:17;;;;;;;4.32;2.35;;;;;;;16.63;66.75;100730.47;4910590;29;20158;-80
2023/10/29 02:08:45;;;;;;;5.18;2.33;;;;;;;16.71;66.79;100746.50;4897418;29;20163;-79
2023/10/29 02:11:15;;;;;;;4.20;2.17;;;;;;;16.56;66.58;100734.84;4886309;29;20135;-79
2023/10/29 02:13:47;;;;;;;3.40;2.05;;;;;;;16.64;66.69;100750.88;4880622;29;20047;-79
2023/10/29 02:16:14;;;;;;;3.92;2.40;;;;;;;16.56;66.77;100729.47;4867576;29;20507;-78
2023/10/29 02:18:41;;;;;;;7.07;2.45;;;;;;;16.54;66.50;100726.13;4885303;29;20139;-79
2023/10/29 02:21:08;;;;;;;6.95;2.70;;;;;;;16.41;66.91;100716.78;4887147;29;20141;-77
2023/10/29 02:23:40;;;;;;;7.95;2.17;;;;;;;16.52;66.96;100733.50;4883110;29;20079;-80
2023/10/29 02:26:12;;;;;;;10.43;2.60;;;;;;;16.42;67.47;100739.88;4861484;29;20052;-78
2023/10/29 02:28:40;;;;;;;3.83;2.10;;;;;;;16.40;67.42;100730.34;4855418;29;20045;-79
2023/10/29 02:31:17;;;;;;;5.05;2.28;;;;;;;16.17;67.91;100698.94;4869449;29;20048;-80
2023/10/29 02:33:44;;;;;;;4.28;2.30;;;;;;;16.41;67.80;100707.94;4849984;29;20135;-78
2023/10/29 02:36:10;;;;;;;3.70;1.92;;;;;;;16.26;67.29;100670.28;4878815;29;20839;-78
2023/10/29 02:38:37;;;;;;;4.55;2.47;;;;;;;16.51;67.09;100715.75;4863794;29;20052;-78
2023/10/29 02:41:05;;;;;;;5.05;2.30;;;;;;;16.41;67.26;100703.41;4866886;29;20574;-79
2023/10/29 02:43:38;;;;;;;5.07;1.67;;;;;;;16.33;67.47;100686.50;4899553;29;20083;-78
2023/10/29 02:46:04;;;;;;;3.78;1.80;;;;;;;16.51;67.73;100707.72;4871633;29;20127;-79
2023/10/29 02:48:32;;;;;;;6.78;1.80;;;;;;;16.50;67.93;100711.41;4898247;29;20062;-78
2023/10/29 02:50:59;;;;;;;6.90;1.58;;;;;;;16.41;67.62;100698.03;4864185;29;20912;-78
2023/10/29 02:53:26;;;;;;;4.63;1.63;;;;;;;16.39;67.40;100693.84;4886055;29;20083;-78
2023/10/29 02:55:52;;;;;;;5.72;2.08;;;;;;;16.48;67.37;100722.31;4881556;29;20115;-79
2023/10/29 02:58:25;;;;;;;3.95;1.95;;;;;;;16.38;67.58;100717.16;4878159;29;20316;-78
2023/10/29 03:01:05;;;;;;;3.40;1.85;;;;;;;16.26;68.15;100713.13;4879404;29;20140;-80
2023/10/29 03:03:33;;;;;;;3.60;1.58;;;;;;;16.00;68.56;100698.13;4892297;29;20067;-76
2023/10/29 03:06:05;;;;;;;4.65;1.80;;;;;;;15.11;68.97;100552.66;4876577;29;20876;-80
2023/10/29 03:08:38;;;;;;;4.18;2.05;;;;;;;16.19;69.17;100722.84;4891344;29;20051;-80
2023/10/29 03:11:08;;;;;;;3.17;1.75;;;;;;;16.47;68.88;100742.06;4885515;29;20296;-78
2023/10/29 03:13:43;;;;;;;3.50;1.90;;;;;;;16.61;68.57;100741.34;4891556;29;20076;-78
2023/10/29 03:16:10;;;;;;;3.05;1.60;;;;;;;16.61;67.88;100729.78;4893000;29;20668;-80
2023/10/29 03:18:36;;;;;;;4.65;1.50;;;;;;;16.73;67.27;100728.41;4870865;29;20389;-81
2023/10/29 03:21:03;;;;;;;4.50;1.75;;;;;;;16.92;66.86;100740.59;4871952;29;20055;-80
2023/10/29 03:23:30;;;;;;;4.22;1.67;;;;;;;16.92;66.15;100747.78;4885793;29;20236;-78
2023/10/29 03:26:02;;;;;;;2.97;1.52;;;;;;;16.87;66.47;100743.81;4880802;29;20355;-78
2023/10/29 03:28:29;;;;;;;3.17;1.45;;;;;;;16.93;66.78;100752.16;4870719;29;20518;-78
2023/10/29 03:31:11;;;;;;;2.70;1.65;;;;;;;16.79;66.53;100733.09;4863585;29;20410;-80
2023/10/29 03:33:38;;;;;;;3.47;1.40;;;;;;;16.99;66.58;100754.97;4849866;29;20044;-79
2023/10/29 03:36:05;;;;;;;2.67;1.63;;;;;;;16.88;66.33;100717.81;4875582;29;20360;-80
2023/10/29 03:38:32;;;;;;;8.55;1.60;;;;;;;17.14;65.89;100770.34;4839785;29;20491;-78
2023/10/29 03:40:59;;;;;;;3.88;1.50;;;;;;;17.05;65.48;100767.69;4879812;29;20083;-78
2023/10/29 03:43:26;;;;;;;6.80;1.85;;;;;;;16.95;65.92;100766.22;4877094;29;20463;-78
2023/10/29 03:45:53;;;;;;;3.10;1.67;;;;;;;16.91;66.09;100764.91;4848633;29;20364;-78
2023/10/29 03:48:20;;;;;;;2.90;1.35;;;;;;;16.76;66.28;100752.19;4871592;29;20340;-80
2023/10/29 03:50:47;;;;;;;5.93;2.03;;;;;;;16.74;66.63;100759.56;4887793;29;20565;-78
2023/10/29 03:53:15;;;;;;;5.90;1.88;;;;;;;16.38;66.60;100695.72;4878161;29;20055;-79
2023/10/29 03:55:41;;;;;;;4.03;1.77;;;;;;;16.65;66.85;100753.41;4878254;29;20697;-77
2023/10/29 03:58:08;;;;;;;4.18;1.67;;;;;;;16.20;66.67;100692.41;4871566;29;20268;-79
2023/10/29 04:00:37;;;;;;;4.97;2.00;;;;;;;16.49;67.08;100749.94;4878307;29;20083;-79
2023/10/29 04:03:07;;;;;;;5.15;1.85;;;;;;;16.52;67.39;100753.09;4886004;29;20060;-79
2023/10/29 04:05:34;;;;;;;4.18;2.15;;;;;;;16.32;67.65;100690.19;4871363;29;20048;-78
2023/10/29 04:08:01;;;;;;;3.42;2.10;;;;;;;16.65;67.02;100760.59;4868947;29;20060;-79
2023/10/29 04:10:29;;;;;;;5.63;1.83;;;;;;;16.60;67.37;100749.53;4871611;29;20394;-79
2023/10/29 04:12:56;;;;;;;3.47;1.83;;;;;;;16.57;67.46;100739.19;4876924;29;20390;-78
2023/10/29 04:15:23;;;;;;;3.53;1.88;;;;;;;16.63;67.67;100754.59;4857745;29;20048;-79
2023/10/29 04:17:50;;;;;;;3.75;1.60;;;;;;;16.66;67.47;100749.69;4855331;29;20059;-78
2023/10/29 04:20:17;;;;;;;3.08;1.67;;;;;;;16.54;67.86;100710.06;4873764;29;20522;-77
2023/10/29 04:22:46;;;;;;;4.22;1.15;;;;;;;16.90;67.51;100749.84;4865265;29;20487;-77
2023/10/29 04:25:13;;;;;;;4.07;2.20;;;;;;;17.02;67.06;100743.06;4877248;29;20506;-77
2023/10/29 04:27:43;;;;;;;4.80;1.60;;;;;;;17.06;66.46;100736.31;4868995;29;20064;-79
2023/10/29 04:30:14;;;;;;;3.05;1.33;;;;;;;17.12;66.62;100724.91;4875825;29;20278;-79
2023/10/29 04:32:48;;;;;;;3.47;1.33;;;;;;;17.35;66.56;100727.59;4868540;29;20104;-78
2023/10/29 04:35:15;;;;;;;2.58;1.23;;;;;;;17.49;65.74;100742.13;4869882;29;20056;-77
2023/10/29 04:37:42;;;;;;;8.25;1.95;;;;;;;17.55;65.12;100733.38;4883777;29;20056;-76
2023/10/29 04:40:11;;;;;;;7.03;1.30;;;;;;;17.44;64.41;100701.56;4865907;29;20470;-78
2023/10/29 04:42:41;;;;;;;2.20;1.25;;;;;;;17.54;65.13;100712.88;4888233;29;20052;-77
2023/10/29 04:45:11;;;;;;;2.08;1.33;;;;;;;17.60;63.96;100730.97;4873333;29;20455;-77
2023/10/29 04:47:38;;;;;;;2.55;1.38;;;;;;;17.67;63.79;100712.28;4867448;29;20583;-77
2023/10/29 04:50:08;;;;;;;2.40;1.35;;;;;;;17.99;64.04;100721.97;4855268;29;20059;-77
2023/10/29 04:52:35;;;;;;;4.00;1.27;;;;;;;17.77;62.83;100698.59;4876761;29;20461;-77
2023/10/29 04:55:08;;;;;;;5.07;1.20;;;;;;;17.69;63.62;100661.94;4865940;29;20312;-78
2023/10/29 04:57:40;;;;;;;2.42;1.48;;;;;;;18.21;63.55;100716.72;4872130;29;20366;-79
2023/10/29 05:00:16;;;;;;;1.73;1.10;;;;;;;18.40;63.16;100724.25;4866784;29;20056;-79
2023/10/29 05:02:43;;;;;;;2.42;0.98;;;;;;;18.50;63.28;100724.78;4893061;29;20139;-77
2023/10/29 05:05:11;;;;;;;4.18;1.20;;;;;;;18.45;62.61;100710.25;4879040;29;20115;-78
2023/10/29 05:07:43;;;;;;;2.67;1.10;;;;;;;18.65;61.73;100727.47;4889378;29;20462;-79
2023/10/29 05:10:13;;;;;;;2.15;1.25;;;;;;;18.63;62.19;100707.16;4876561;29;20059;-79
2023/10/29 05:12:41;;;;;;;3.40;1.17;;;;;;;18.86;61.96;100732.13;4859063;29;20119;-77
2023/10/29 05:15:12;;;;;;;1.10;0.88;;;;;;;18.62;61.61;100694.72;4882657;29;20131;-79
2023/10/29 05:17:40;;;;;;;3.35;0.80;;;;;;;18.91;61.35;100716.25;4887079;29;20063;-80
2023/10/29 05:20:09;;;;;;;3.35;1.08;;;;;;;19.00;61.20;100731.28;4862488;29;20076;-78
2023/10/29 05:22:45;;;;;;;1.17;0.80;;;;;;;19.03;60.96;100737.28;4852693;29;20052;-78
2023/10/29 05:25:14;;;;;;;4.25;1.08;;;;;;;19.01;61.13;100732.09;4873257;29;20235;-77
2023/10/29 05:27:52;;;;;;;2.55;0.95;;;;;;;19.06;60.10;100739.63;4870095;29;20573;-77
2023/10/29 05:30:20;;;;;;;5.50;1.10;;;;;;;19.11;60.64;100735.31;4871418;29;20480;-78
2023/10/29 05:32:50;;;;;;;3.42;1.08;;;;;;;19.19;59.99;100745.13;4886634;29;20425;-79
2023/10/29 05:35:17;;;;;;;4.93;1.20;;;;;;;19.20;60.28;100746.81;4878263;29;20139;-77
2023/10/29 05:37:44;;;;;;;3.70;1.00;;;;;;;19.09;59.64;100748.13;4888748;29;20511;-78
2023/10/29 05:40:11;;;;;;;1.95;1.00;;;;;;;19.15;60.32;100754.59;4883722;29;20048;-77
2023/10/29 05:42:38;;;;;;;4.10;0.82;;;;;;;18.93;58.89;100727.66;4884055;29;20511;-77
2023/10/29 05:45:06;;;;;;;3.33;1.10;;;;;;;18.90;59.32;100733.41;4882618;29;20067;-77
2023/10/29 05:47:34;;;;;;;2.25;0.95;;;;;;;19.14;59.66;100758.31;4859523;29;20585;-79
2023/10/29 05:50:04;;;;;;;3.42;1.13;;;;;;;19.24;59.02;100758.03;4891282;29;20366;-77
2023/10/29 05:52:31;;;;;;;1.40;0.98;;;;;;;19.18;59.51;100751.56;4855595;29;20613;-78
2023/10/29 05:55:03;;;;;;;3.00;1.10;;;;;;;19.30;59.16;100736.56;4870832;29;20048;-79
2023/10/29 05:57:30;;;;;;;2.45;0.88;;;;;;;19.01;58.41;100715.97;4857959;29;20091;-77
2023/10/29 05:59:57;;;;;;;2.60;1.15;;;;;;;19.30;59.25;100760.81;4869969;29;20131;-78
2023/10/29 06:02:26;;;;;;;3.67;1.10;;;;;;;19.17;58.67;100749.88;4880577;29;20410;-79
2023/10/29 06:04:53;;;;;;;0.80;0.60;;;;;;;19.07;57.78;100769.00;4864475;29;20470;-77
2023/10/29 06:07:20;;;;;;;7.70;1.40;;;;;;;18.94;56.48;100775.06;4874023;29;20048;-78
2023/10/29 06:09:49;;;;;;;2.30;1.10;;;;;;;18.92;56.51;100811.22;4879445;29;20048;-79
2023/10/29 06:12:23;;;;;;;3.58;0.98;;;;;;;18.73;57.21;100801.81;4871182;29;20083;-79
2023/10/29 06:14:51;;;;;;;2.05;0.80;;;;;;;18.22;56.94;100726.44;4881711;29;20494;-78
2023/10/29 06:17:21;;;;;;;4.63;1.13;;;;;;;18.50;58.12;100781.25;4870159;29;20048;-79
2023/10/29 06:19:53;;;;;;;3.20;1.23;;;;;;;18.50;58.80;100800.06;4876691;29;20332;-79
2023/10/29 06:22:20;;;;;;;1.45;0.93;;;;;;;18.52;58.39;100819.53;4865309;29;20080;-79
2023/10/29 06:24:50;;;;;;;3.25;0.90;;;;;;;18.37;59.53;100805.22;4863940;29;20056;-80
2023/10/29 06:27:21;;;;;;;5.57;1.17;;;;;;;18.43;58.80;100838.63;4843395;29;20457;-78
2023/10/29 06:29:48;;;;;;;3.30;1.20;;;;;;;18.42;58.33;100832.38;4859856;29;20052;-78
2023/10/29 06:32:20;;;;;;;4.43;1.47;;;;;;;18.44;58.29;100849.16;4893135;29;20438;-80
2023/10/29 06:34:49;;;;;;;6.40;2.00;;;;;;;18.27;58.44;100831.50;4894697;29;20379;-80
2023/10/29 06:37:19;;;;;;;5.15;1.80;;;;;;;18.19;58.90;100828.91;4881031;29;20131;-80
2023/10/29 06:39:52;;;;;;;8.20;2.58;;;;;;;17.99;59.10;100842.81;4890990;29;20060;-79
2023/10/29 06:42:19;;;;;;;2.47;1.45;;;;;;;17.82;60.30;100828.69;4888679;29;20048;-78
2023/10/29 06:44:52;;;;;;;2.92;1.65;;;;;;;17.79;60.77;100836.22;4888448;29;20083;-79
2023/10/29 06:47:21;;;;;;;6.28;2.08;;;;;;;17.80;61.14;100841.44;4896412;29;20139;-77
2023/10/29 06:49:50;;;;;;;4.22;1.65;;;;;;;17.79;61.70;100833.53;4900747;29;20365;-79
2023/10/29 06:52:24;;;;;;;7.32;1.77;;;;;;;17.61;62.13;100790.84;4880705;29;20781;-79
2023/10/29 06:54:53;;;;;;;5.22;1.73;;;;;;;17.74;61.93;100826.00;4876934;29;20048;-80
2023/10/29 06:57:23;;;;;;;4.05;1.45;;;;;;;17.77;62.09;100836.41;4884844;28;20075;-79
2023/10/29 06:59:50;;;;;;;5.85;1.95;;;;;;;17.40;62.78;100786.94;4887633;29;20369;-78
2023/10/29 07:02:17;;;;;;;3.40;1.58;;;;;;;17.67;62.19;100833.09;4894206;29;20130;-78
2023/10/29 07:04:44;;;;;;;4.25;1.95;;;;;;;17.59;62.14;100815.19;4898498;29;20398;-78
2023/10/29 07:07:11;;;;;;;4.07;1.95;;;;;;;17.80;62.31;100840.56;4894866;29;20055;-78
2023/10/29 07:09:38;;;;;;;3.47;1.52;;;;;;;17.88;62.88;100837.84;4891794;29;20063;-80
2023/10/29 07:12:11;;;;;;;7.85;2.50;;;;;;;17.97;62.24;100842.16;4882922;29;20051;-80
2023/10/29 07:14:38;;;;;;;7.97;2.63;;;;;;;17.90;61.99;100827.78;4907507;29;20040;-78
2023/10/29 07:17:05;;;;;;;8.73;2.47;;;;;;;18.02;62.84;100841.63;4880720;29;20945;-78
2023/10/29 07:19:32;;;;;;;5.63;2.33;;;;;;;18.02;61.68;100839.78;4892350;29;20058;-77
2023/10/29 07:22:00;;;;;;;7.95;2.75;;;;;;;17.98;61.50;100826.88;4870924;29;20056;-77
2023/10/29 07:24:27;;;;;;;5.43;2.67;;;;;;;18.09;62.04;100851.47;4918494;29;20570;-77
2023/10/29 07:26:54;;;;;;;6.88;3.50;;;;;;;18.16;61.83;100862.34;4886796;29;20090;-79
2023/10/29 07:29:21;;;;;;;7.78;3.20;;;;;;;18.14;61.73;100865.19;4886277;29;20048;-79
2023/10/29 07:31:50;;;;;;;10.07;3.15;;;;;;;18.08;61.41;100855.19;4883065;29;20310;-79
2023/10/29 07:34:19;;;;;;;5.03;3.42;;;;;;;18.10;61.97;100863.06;4883794;29;20052;-78
2023/10/29 07:36:46;;;;;;;9.07;3.30;;;;;;;18.09;61.91;100858.72;4898345;29;20096;-77
2023/10/29 07:39:20;;;;;;;12.30;3.10;;;;;;;17.42;62.43;100741.97;4864727;29;20140;-80
2023/10/29 07:41:47;;;;;;;8.23;2.92;;;;;;;17.69;62.64;100786.28;4881045;29;20048;-79
2023/10/29 07:44:14;;;;;;;11.55;5.70;;;;;;;17.92;63.06;100817.69;4888304;29;20493;-78
2023/10/29 07:46:42;;;;;;;5.22;3.28;;;;;;;18.05;64.00;100838.56;4883438;29;20225;-80
2023/10/29 07:49:09;;;;;;;6.80;3.05;;;;;;;18.22;63.68;100863.47;4906953;29;20424;-78
2023/10/29 07:51:36;;;;;;;6.32;3.38;;;;;;;18.29;63.71;100856.34;4902312;29;20052;-80
2023/10/29 07:54:06;;;;;;;6.70;3.47;;;;;;;17.68;63.97;100757.75;4876402;29;20048;-78
2023/10/29 07:56:33;;;;;;;8.65;4.25;;;;;;;18.36;64.23;100868.06;4873441;29;20084;-80
2023/10/29 07:59:00;;;;;;;8.90;3.47;;;;;;;18.32;64.94;100869.44;4895875;29;20052;-78
2023/10/29 08:01:28;;;;;;;7.97;4.40;;;;;;;18.39;65.62;100870.38;4891589;29;20363;-80
2023/10/29 08:03:56;;;;;;;5.95;2.40;;;;;;;18.43;64.96;100852.06;4884343;29;20083;-80
2023/10/29 08:06:23;;;;;;;5.15;2.30;;;;;;;18.62;65.05;100872.19;4895240;29;20126;-80
2023/10/29 08:09:04;;;;;;;7.45;3.40;;;;;;;18.63;64.50;100852.34;4896084;29;20197;-79
2023/10/29 08:11:35;;;;;;;4.00;2.28;;;;;;;18.77;64.78;100867.72;4871123;29;20058;-81
2023/10/29 08:14:08;;;;;;;3.80;2.05;;;;;;;18.78;64.90;100867.50;4884223;29;20088;-78
2023/10/29 08:16:35;;;;;;;5.50;2.33;;;;;;;18.74;64.90;100865.38;4877550;29;20139;-78
2023/10/29 08:19:02;;;;;;;2.90;1.92;;;;;;;18.89;64.40;100879.69;4880310;29;20131;-79
2023/10/29 08:21:29;;;;;;;4.82;2.15;;;;;;;18.86;65.04;100873.81;4869439;29;20629;-78
2023/10/29 08:23:55;;;;;;;5.43;2.75;;;;;;;18.69;65.10;100846.22;4890682;29;20067;-79
2023/10/29 08:26:24;;;;;;;3.50;2.00;;;;;;;19.02;64.42;100883.59;4879166;29;20048;-78
2023/10/29 08:28:53;;;;;;;7.53;2.15;;;;;;;18.89;63.89;100851.97;4874423;29;20483;-79
2023/10/29 08:31:21;;;;;;;3.38;2.20;;;;;;;19.09;64.05;100879.97;4893697;29;20135;-78
2023/10/29 08:33:49;;;;;;;3.08;1.92;;;;;;;19.12;64.27;100878.75;4868534;29;20462;-77
2023/10/29 08:36:19;;;;;;;3.95;1.75;;;;;;;19.16;64.36;100880.06;4871576;29;20048;-77
2023/10/29 08:38:46;;;;;;;3.05;2.20;;;;;;;19.20;64.46;100892.97;4870739;29;20119;-79
2023/10/29 08:41:14;;;;;;;4.60;2.08;;;;;;;19.18;64.52;100888.81;4873120;29;20182;-79
2023/10/29 08:43:44;;;;;;;5.53;2.28;;;;;;;19.27;64.08;100892.22;4870147;29;20056;-81
2023/10/29 08:46:11;;;;;;;6.43;1.70;;;;;;;19.20;63.62;100870.63;4845518;29;20558;-79
2023/10/29 08:48:39;;;;;;;5.03;2.20;;;;;;;19.30;63.78;100876.53;4902738;29;20269;-78
2023/10/29 08:51:14;;;;;;;6.20;1.88;;;;;;;19.10;63.87;100845.81;4907451;29;20486;-79
2023/10/29 08:53:41;;;;;;;3.95;2.00;;;;;;;19.41;63.81;100889.50;4890164;29;20102;-78
2023/10/29 08:56:09;;;;;;;7.50;2.05;;;;;;;19.50;63.64;100892.13;4895179;29;20236;-78
2023/10/29 08:58:37;;;;;;;4.07;2.13;;;;;;;19.31;63.32;100856.66;4886983;29;20071;-77
2023/10/29 09:01:11;;;;;;;3.33;1.75;;;;;;;19.48;63.21;100880.69;4891255;28;20123;-79
2023/10/29 09:03:40;;;;;;;6.72;2.00;;;;;;;19.56;63.33;100880.56;4878920;29;20060;-79
2023/10/29 09:06:07;;;;;;;4.40;1.88;;;;;;;19.33;63.06;100848.41;4868419;29;20517;-78
2023/10/29 09:08:37;;;;;;;4.82;2.10;;;;;;;19.42;63.30;100850.81;4868198;29;20052;-79
2023/10/29 09:11:04;;;;;;;4.38;1.75;;;;;;;19.50;63.50;100870.56;4882038;29;20062;-78
2023/10/29 09:13:32;;;;;;;4.75;1.80;;;;;;;19.48;64.27;100861.84;4887495;29;20123;-79
2023/10/29 09:15:59;;;;;;;3.55;1.75;;;;;;;19.62;63.54;100877.97;4893008;29;20060;-78
2023/10/29 09:18:29;;;;;;;3.05;2.13;;;;;;;19.64;63.16;100870.53;4882177;29;20060;-78
2023/10/29 09:20:58;;;;;;;5.00;1.80;;;;;;;19.70;62.90;100874.34;4883623;29;20059;-79
2023/10/29 09:23:27;;;;;;;6.43;2.08;;;;;;;19.57;63.06;100844.56;4897847;29;20048;-78
2023/10/29 09:25:59;;;;;;;2.60;1.70;;;;;;;19.90;62.46;100881.81;4866616;29;20045;-78
2023/10/29 09:28:26;;;;;;;6.20;2.80;;;;;;;19.93;62.96;100881.44;4873914;29;20095;-78
2023/10/29 09:30:53;;;;;;;2.25;1.50;;;;;;;20.01;62.91;100884.03;4854282;29;20249;-79
2023/10/29 09:33:20;;;;;;;2.80;1.83;;;;;;;20.01;62.09;100874.06;4864934;29;20577;-78
2023/10/29 09:35:47;;;;;;;4.00;2.00;;;;;;;20.04;62.37;100879.06;4873590;29;20340;-79
2023/10/29 09:38:15;;;;;;;3.45;2.08;;;;;;;19.98;62.06;100865.56;4889351;29;20084;-78
2023/10/29 09:40:42;;;;;;;6.63;2.33;;;;;;;20.13;63.32;100887.88;4867707;29;20322;-77
2023/10/29 09:43:13;;;;;;;5.28;1.67;;;;;;;20.14;61.88;100870.66;4868567;29;20079;-78
2023/10/29 09:45:46;;;;;;;2.53;1.50;;;;;;;20.18;61.71;100880.03;4858728;29;20079;-78
2023/10/29 09:48:16;;;;;;;3.22;1.70;;;;;;;20.14;61.65;100878.75;4884015;29;20118;-78
2023/10/29 09:50:47;;;;;;;3.78;2.00;;;;;;;20.22;61.24;100888.56;4895651;29;20048;-78
2023/10/29 09:53:15;;;;;;;4.45;1.63;;;;;;;20.12;61.77;100880.81;4895310;29;20139;-78
2023/10/29 09:55:42;;;;;;;3.08;1.65;;;;;;;20.27;61.18;100881.59;4867081;29;20045;-77
2023/10/29 09:58:09;;;;;;;3.92;2.03;;;;;;;20.21;61.21;100885.03;4868994;29;20349;-78
2023/10/29 10:00:44;;;;;;;5.88;2.10;;;;;;;20.18;61.22;100869.28;4859266;29;20048;-76
2023/10/29 10:03:10;;;;;;;6.63;1.80;;;;;;;20.30;60.48;100868.75;4885783;29;20059;-77
2023/10/29 10:05:40;;;;;;;2.65;1.95;;;;;;;20.20;60.92;100861.81;4886465;29;20514;-77
2023/10/29 10:08:07;;;;;;;2.90;1.85;;;;;;;20.23;61.15;100874.91;4873348;29;20070;-76
2023/10/29 10:10:40;;;;;;;3.33;1.67;;;;;;;20.18;61.19;100877.34;4881327;29;20462;-77
2023/10/29 10:13:09;;;;;;;3.80;1.88;;;;;;;20.25;61.52;100888.19;4880399;29;20120;-80
2023/10/29 10:15:41;;;;;;;4.32;2.10;;;;;;;20.13;61.38;100871.72;4888047;29;20050;-78
2023/10/29 10:18:08;;;;;;;3.05;1.55;;;;;;;20.29;60.89;100873.28;4871291;29;20408;-78
2023/10/29 10:20:38;;;;;;;2.63;1.77;;;;;;;20.45;60.66;100889.19;4886905;29;20075;-79
2023/10/29 10:23:09;;;;;;;4.00;2.33;;;;;;;20.40;60.81;100885.44;4892538;29;20064;-79
2023/10/29 10:25:42;;;;;;;3.55;2.10;;;;;;;20.51;60.48;100879.53;4869844;29;20068;-80
2023/10/29 10:28:14;;;;;;;3.75;1.65;;;;;;;20.46;60.42;100879.25;4861227;29;20049;-78
2023/10/29 10:30:43;;;;;;;4.18;1.52;;;;;;;20.42;60.80;100875.28;4884127;29;20545;-79
2023/10/29 10:33:20;;;;;;;9.93;2.33;;;;;;;20.45;60.80;100885.69;4879936;29;20182;-79
2023/10/29 10:35:51;;;;;;;8.35;1.90;;;;;;;20.37;60.57;100866.97;4877575;29;20410;-77
2023/10/29 10:38:22;;;;;;;3.80;1.90;;;;;;;20.43;60.45;100867.00;4887706;29;20589;-80
2023/10/29 10:40:58;;;;;;;4.30;1.77;;;;;;;20.59;60.07;100867.78;4882477;29;20570;-78
2023/10/29 10:43:27;;;;;;;7.25;2.50;;;;;;;20.53;60.29;100863.13;4899716;29;20115;-79
2023/10/29 10:45:55;;;;;;;5.88;2.25;;;;;;;20.64;59.86;100868.84;4872242;29;20060;-79
2023/10/29 10:48:23;;;;;;;3.10;1.52;;;;;;;20.63;59.57;100856.41;4874280;29;20067;-79
2023/10/29 10:50:53;;;;;;;3.95;1.75;;;;;;;20.49;59.64;100824.94;4856186;29;20056;-78
2023/10/29 10:53:26;;;;;;;3.22;1.70;;;;;;;20.56;59.70;100852.84;4880649;29;20134;-79
2023/10/29 10:55:54;;;;;;;5.55;2.20;;;;;;;20.39;60.20;100837.91;4881405;29;20044;-80
2023/10/29 10:58:31;;;;;;;5.18;1.77;;;;;;;20.46;60.40;100849.59;4875020;29;20347;-81
2023/10/29 11:00:58;;;;;;;5.20;1.95;;;;;;;20.34;60.29;100833.13;4881850;29;20067;-79
2023/10/29 11:03:28;;;;;;;4.80;1.60;;;;;;;20.42;60.58;100859.94;4886706;29;20601;-78
2023/10/29 11:05:59;;;;;;;5.43;1.83;;;;;;;20.43;60.71;100869.69;4873555;29;20052;-78
2023/10/29 11:08:28;;;;;;;2.80;1.50;;;;;;;20.17;60.48;100820.94;4894940;29;20135;-80
2023/10/29 11:10:58;;;;;;;5.78;2.10;;;;;;;20.39;61.01;100865.72;4895611;29;20416;-80
2023/10/29 11:13:26;;;;;;;6.95;1.80;;;;;;;20.36;61.06;100855.31;4872443;29;20131;-79
2023/10/29 11:15:54;;;;;;;4.13;2.38;;;;;;;20.35;61.15;100859.06;4862941;29;20112;-79
2023/10/29 11:18:33;;;;;;;7.10;1.85;;;;;;;19.88;60.80;100778.81;4888092;29;20181;-80
2023/10/29 11:21:03;;;;;;;5.22;1.83;;;;;;;20.27;61.53;100865.41;4849428;29;20634;-79
2023/10/29 11:23:32;;;;;;;8.18;3.72;;;;;;;20.45;62.04;100882.97;4871566;29;20051;-79
2023/10/29 11:26:21;;;;;;;9.65;4.78;;;;;;;20.15;63.25;100841.88;4845684;29;20260;-79
2023/10/29 11:28:51;;;;;;;11.10;6.65;;;;;;;20.11;63.54;100879.16;4868478;29;20419;-78
2023/10/29 11:31:22;;;;;;;13.85;6.85;;;;;;;20.05;63.66;100896.09;4861965;29;20361;-79